Time;durP1;ratioP1;P1;durP2;ratioP2;P2;SDS_P1;SDS_P2;PMS_P1;PMS_P2;Temp;Humidity;BMP_temperature;BMP_pressure;BME280_temperature;BME280_humidity;BME280_pressure;Samples;Min_cycle;Max_cycle;Signal;HPM_P1;HPM_P2
2021/08/22 00:00:12;;;;;;;10.90;9.23;;;;;;;17.73;94.98;100766.69;679727;28;1343;-81
2021/08/22 00:00:35;;;;;;;10.90;9.80;;;;;;;17.73;95.62;100794.91;680662;28;1082;-81
2021/08/22 00:00:55;;;;;;;11.87;10.50;;;;;;;17.66;96.40;100760.72;683350;28;1188;-81
2021/08/22 00:01:18;;;;;;;13.02;11.07;;;;;;;17.64;96.58;100765.22;681782;28;4378;-81
2021/08/22 00:01:39;;;;;;;12.18;10.85;;;;;;;17.64;96.41;100789.00;682382;28;1300;-80
2021/08/22 00:02:00;;;;;;;11.48;10.30;;;;;;;17.64;96.10;100761.69;683478;28;1250;-80
2021/08/22 00:02:23;;;;;;;13.30;10.30;;;;;;;17.64;96.08;100774.91;685359;28;3460;-81
2021/08/22 00:02:44;;;;;;;11.17;9.67;;;;;;;17.65;94.93;100764.31;682548;28;3081;-80
2021/08/22 00:03:04;;;;;;;9.40;8.50;;;;;;;17.75;94.05;100769.28;679414;28;1932;-80
2021/08/22 00:03:25;;;;;;;10.38;9.20;;;;;;;17.76;94.86;100769.22;680951;28;1296;-80
2021/08/22 00:03:46;;;;;;;11.03;9.90;;;;;;;17.73;95.83;100798.41;682005;28;1256;-80
2021/08/22 00:04:06;;;;;;;11.88;10.68;;;;;;;17.72;96.15;100772.03;680170;28;1375;-80
2021/08/22 00:04:27;;;;;;;12.37;10.30;;;;;;;17.67;96.17;100783.63;676799;29;4597;-80
2021/08/22 00:04:47;;;;;;;11.85;9.85;;;;;;;17.65;96.02;100766.06;682874;28;1443;-80
2021/08/22 00:05:08;;;;;;;10.85;9.60;;;;;;;17.68;95.03;100781.81;680216;28;1320;-80
2021/08/22 00:05:29;;;;;;;9.90;8.73;;;;;;;17.72;94.15;100764.94;676962;29;3778;-81
2021/08/22 00:05:49;;;;;;;10.00;8.67;;;;;;;17.77;93.61;100788.59;675080;29;1544;-80
2021/08/22 00:06:10;;;;;;;10.27;9.13;;;;;;;17.80;94.00;100768.19;674861;29;1626;-80
2021/08/22 00:06:31;;;;;;;11.53;9.97;;;;;;;17.78;94.83;100774.47;673215;29;1264;-80
2021/08/22 00:06:51;;;;;;;11.00;9.80;;;;;;;17.84;95.14;100768.97;673391;29;939;-80
2021/08/22 00:07:12;;;;;;;11.18;9.80;;;;;;;17.86;95.08;100785.63;679775;28;4331;-80
2021/08/22 00:07:32;;;;;;;11.30;9.73;;;;;;;17.88;94.46;100770.59;682897;28;1287;-80
2021/08/22 00:07:53;;;;;;;11.38;9.45;;;;;;;17.85;94.16;100763.63;680683;28;1190;-80
2021/08/22 00:08:14;;;;;;;11.10;9.90;;;;;;;17.82;95.01;100762.84;676859;29;1263;-80
2021/08/22 00:08:39;;;;;;;11.20;10.07;;;;;;;17.75;95.36;100780.72;677424;29;4229;-80
2021/08/22 00:08:59;;;;;;;11.48;10.15;;;;;;;17.72;95.83;100761.44;677150;29;1607;-81
2021/08/22 00:09:20;;;;;;;11.17;9.90;;;;;;;17.68;96.00;100755.38;675680;29;1428;-81
2021/08/22 00:09:41;;;;;;;11.07;9.98;;;;;;;17.62;96.18;100756.44;682960;28;1629;-80
2021/08/22 00:10:02;;;;;;;11.65;10.45;;;;;;;17.62;96.53;100760.88;683570;28;1833;-81
2021/08/22 00:10:22;;;;;;;12.48;10.88;;;;;;;17.58;96.37;100760.09;680313;28;4308;-80
2021/08/22 00:10:43;;;;;;;11.67;10.07;;;;;;;17.59;95.80;100768.91;680205;29;1791;-80
2021/08/22 00:11:03;;;;;;;11.23;9.52;;;;;;;17.60;95.35;100757.41;679017;29;1649;-80
2021/08/22 00:11:24;;;;;;;10.33;9.23;;;;;;;17.61;95.16;100767.97;679263;29;3509;-80
2021/08/22 00:11:44;;;;;;;11.13;10.03;;;;;;;17.60;95.55;100768.88;678984;29;4082;-80
2021/08/22 00:12:05;;;;;;;12.07;10.70;;;;;;;17.61;95.70;100765.31;676615;29;1408;-80
2021/08/22 00:12:25;;;;;;;11.70;10.25;;;;;;;17.61;95.76;100765.31;681499;28;1575;-80
2021/08/22 00:12:46;;;;;;;11.70;10.25;;;;;;;17.60;96.10;100766.22;678886;29;1635;-80
2021/08/22 00:13:06;;;;;;;12.07;10.27;;;;;;;17.60;96.18;100765.34;678664;29;1712;-80
2021/08/22 00:13:27;;;;;;;11.90;10.70;;;;;;;17.56;96.30;100761.94;679921;29;4587;-80
2021/08/22 00:13:47;;;;;;;12.02;10.77;;;;;;;17.56;96.06;100769.88;678563;29;1262;-80
2021/08/22 00:14:07;;;;;;;12.23;10.93;;;;;;;17.55;96.58;100757.56;677814;29;1375;-80
2021/08/22 00:14:27;;;;;;;12.00;10.80;;;;;;;17.55;96.38;100762.84;678277;29;3590;-80
2021/08/22 00:14:48;;;;;;;12.23;10.90;;;;;;;17.53;96.77;100762.91;682556;28;1702;-80
2021/08/22 00:15:09;;;;;;;12.43;11.13;;;;;;;17.53;97.00;100762.91;679884;28;2058;-80
2021/08/22 00:15:30;;;;;;;12.93;11.63;;;;;;;17.52;97.07;100770.91;677247;29;1502;-80
2021/08/22 00:15:50;;;;;;;13.87;12.00;;;;;;;17.50;97.40;100770.94;675975;29;1616;-80
2021/08/22 00:16:10;;;;;;;14.45;12.02;;;;;;;17.48;97.49;100772.75;674412;29;4365;-80
2021/08/22 00:16:31;;;;;;;13.77;12.10;;;;;;;17.46;97.59;100768.44;675359;29;1605;-80
2021/08/22 00:16:51;;;;;;;13.07;11.77;;;;;;;17.44;97.38;100760.56;676980;29;1420;-80
2021/08/22 00:17:12;;;;;;;11.75;10.55;;;;;;;17.47;96.49;100767.53;677627;29;4144;-80
2021/08/22 00:17:32;;;;;;;10.20;9.10;;;;;;;17.51;96.22;100763.88;676032;29;4118;-80
2021/08/22 00:17:52;;;;;;;11.02;9.93;;;;;;;17.53;96.34;100762.91;677684;29;1328;-80
2021/08/22 00:18:13;;;;;;;10.57;9.47;;;;;;;17.55;95.80;100764.66;677447;29;1350;-80
2021/08/22 00:18:33;;;;;;;10.33;9.33;;;;;;;17.58;95.24;100756.63;681783;28;1413;-80
2021/08/22 00:18:53;;;;;;;11.02;9.73;;;;;;;17.60;95.16;100763.59;682644;28;1591;-80
2021/08/22 00:19:14;;;;;;;11.00;9.70;;;;;;;17.62;95.00;100758.25;680121;28;4330;-80
2021/08/22 00:19:34;;;;;;;10.30;9.20;;;;;;;17.63;95.10;100762.63;683607;28;1453;-80
2021/08/22 00:19:54;;;;;;;11.23;10.03;;;;;;;17.62;96.00;100766.16;681355;28;1270;-80
2021/08/22 00:20:15;;;;;;;12.00;10.70;;;;;;;17.60;96.77;100760.06;683116;28;3426;-80
2021/08/22 00:20:35;;;;;;;11.93;10.63;;;;;;;17.57;96.68;100763.69;682123;28;3431;-80
2021/08/22 00:20:56;;;;;;;12.00;10.77;;;;;;;17.56;97.00;100761.09;681439;28;1614;-80
2021/08/22 00:21:16;;;;;;;12.10;10.82;;;;;;;17.53;97.23;100756.78;679802;28;1486;-81
2021/08/22 00:21:37;;;;;;;12.40;11.20;;;;;;;17.52;97.35;100760.31;681482;28;1722;-80
2021/08/22 00:21:57;;;;;;;12.52;11.30;;;;;;;17.50;97.38;100752.44;683290;28;1424;-81
2021/08/22 00:22:18;;;;;;;13.10;11.43;;;;;;;17.49;97.36;100755.16;678821;28;4329;-80
2021/08/22 00:22:38;;;;;;;13.25;11.60;;;;;;;17.47;97.77;100757.84;682859;28;1554;-80
2021/08/22 00:22:59;;;;;;;12.77;11.43;;;;;;;17.46;97.66;100760.50;685548;28;1278;-81
2021/08/22 00:23:20;;;;;;;12.90;11.60;;;;;;;17.44;97.73;100757.06;683560;28;4241;-80
2021/08/22 00:23:40;;;;;;;12.65;11.35;;;;;;;17.42;97.74;100748.28;683987;28;1732;-80
2021/08/22 00:24:00;;;;;;;13.17;11.43;;;;;;;17.40;97.51;100753.63;683716;28;1914;-80
2021/08/22 00:24:21;;;;;;;12.43;10.68;;;;;;;17.42;96.88;100753.59;680467;28;1165;-81
2021/08/22 00:24:41;;;;;;;11.67;10.00;;;;;;;17.46;96.54;100757.84;683752;28;1914;-80
2021/08/22 00:25:03;;;;;;;10.38;9.38;;;;;;;17.49;95.89;100753.34;683992;28;1392;-80
2021/08/22 00:25:23;;;;;;;11.07;10.00;;;;;;;17.51;96.08;100748.00;682499;28;4346;-80
2021/08/22 00:25:43;;;;;;;11.25;10.15;;;;;;;17.50;96.10;100744.53;683238;28;2045;-80
2021/08/22 00:26:04;;;;;;;11.97;10.60;;;;;;;17.51;95.99;100748.91;683631;28;1709;-80
2021/08/22 00:26:24;;;;;;;11.97;10.60;;;;;;;17.52;96.05;100752.41;680433;28;4073;-80
2021/08/22 00:26:45;;;;;;;11.30;10.15;;;;;;;17.53;95.81;100751.50;680676;28;1718;-80
2021/08/22 00:27:05;;;;;;;12.00;10.80;;;;;;;17.53;96.10;100756.78;678140;29;1450;-80
2021/08/22 00:27:25;;;;;;;12.05;10.85;;;;;;;17.54;96.04;100753.19;678639;29;1855;-80
2021/08/22 00:27:46;;;;;;;11.80;10.60;;;;;;;17.54;96.00;100758.47;680497;29;1858;-80
2021/08/22 00:28:06;;;;;;;11.73;10.53;;;;;;;17.53;96.71;100748.84;680674;28;1913;-80
2021/08/22 00:28:26;;;;;;;11.60;10.40;;;;;;;17.52;97.04;100758.53;683891;28;4325;-80
2021/08/22 00:28:47;;;;;;;12.40;11.10;;;;;;;17.52;97.20;100755.03;682806;28;1629;-80
2021/08/22 00:29:07;;;;;;;12.20;11.00;;;;;;;17.51;97.08;100753.31;683145;28;3560;-80
2021/08/22 00:29:27;;;;;;;12.13;10.90;;;;;;;17.51;96.63;100756.81;683157;28;4389;-80
2021/08/22 00:29:48;;;;;;;12.60;11.17;;;;;;;17.51;96.72;100753.31;681222;28;1489;-80
2021/08/22 00:30:09;;;;;;;12.38;11.18;;;;;;;17.50;96.86;100751.56;678366;29;1276;-80
2021/08/22 00:30:29;;;;;;;12.85;11.55;;;;;;;17.51;97.15;100753.31;677293;29;1779;-80
2021/08/22 00:30:50;;;;;;;12.47;11.27;;;;;;;17.50;97.01;100748.91;678914;29;1509;-80
2021/08/22 00:31:10;;;;;;;12.38;11.18;;;;;;;17.50;96.64;100751.56;680969;28;4359;-80
2021/08/22 00:31:30;;;;;;;11.80;10.53;;;;;;;17.50;96.54;100746.28;681060;29;1494;-80
2021/08/22 00:31:51;;;;;;;12.88;10.43;;;;;;;17.50;96.73;100751.56;680319;28;1505;-80
2021/08/22 00:32:11;;;;;;;11.93;10.67;;;;;;;17.48;96.83;100756.06;683454;28;3972;-80
2021/08/22 00:32:34;;;;;;;11.90;10.70;;;;;;;17.47;97.62;100749.03;683509;28;1485;-80
2021/08/22 00:32:54;;;;;;;12.60;11.30;;;;;;;17.44;98.03;100749.13;683106;28;1484;-80
2021/08/22 00:33:15;;;;;;;12.65;11.35;;;;;;;17.44;98.24;100751.78;682653;28;1621;-80
2021/08/22 00:33:35;;;;;;;12.60;11.30;;;;;;;17.42;98.32;100750.94;680734;29;1520;-80
2021/08/22 00:33:55;;;;;;;13.33;11.93;;;;;;;17.41;98.48;100752.72;683578;28;1489;-80
2021/08/22 00:34:16;;;;;;;13.70;12.23;;;;;;;17.42;98.51;100743.91;683170;28;4311;-80
2021/08/22 00:34:36;;;;;;;13.57;12.07;;;;;;;17.41;98.35;100744.81;686229;28;1452;-80
2021/08/22 00:34:56;;;;;;;13.88;12.20;;;;;;;17.42;98.28;100748.28;686059;28;1708;-80
2021/08/22 00:35:17;;;;;;;13.33;11.87;;;;;;;17.42;98.10;100758.88;684709;28;4479;-80
2021/08/22 00:35:37;;;;;;;12.77;11.48;;;;;;;17.42;98.02;100753.59;687118;28;1286;-80
2021/08/22 00:35:58;;;;;;;12.67;11.40;;;;;;;17.42;96.98;100748.28;681903;28;1829;-80
2021/08/22 00:36:18;;;;;;;12.80;10.87;;;;;;;17.45;96.88;100742.94;681750;28;1566;-81
2021/08/22 00:36:38;;;;;;;11.52;10.32;;;;;;;17.47;96.67;100751.66;682508;28;1593;-80
2021/08/22 00:36:59;;;;;;;12.00;10.67;;;;;;;17.46;97.17;100748.16;679526;29;1236;-80
2021/08/22 00:37:20;;;;;;;12.68;11.40;;;;;;;17.46;97.65;100744.66;683006;28;4334;-80
2021/08/22 00:37:41;;;;;;;12.38;11.27;;;;;;;17.45;97.95;100756.16;681635;28;1742;-80
2021/08/22 00:38:02;;;;;;;12.95;11.65;;;;;;;17.44;98.16;100754.41;682781;28;3425;-80
2021/08/22 00:38:22;;;;;;;13.10;11.70;;;;;;;17.42;98.36;100754.47;680759;28;4587;-80
2021/08/22 00:38:45;;;;;;;13.37;12.00;;;;;;;17.39;98.60;100753.69;678174;29;1753;-80
2021/08/22 00:39:05;;;;;;;13.05;11.65;;;;;;;17.38;98.44;100755.47;681075;28;1437;-80
2021/08/22 00:39:27;;;;;;;13.63;12.23;;;;;;;17.39;98.67;100764.25;678818;29;3583;-80
2021/08/22 00:39:49;;;;;;;13.45;12.07;;;;;;;17.38;98.93;100759.88;680795;29;1428;-80
2021/08/22 00:40:10;;;;;;;13.25;11.95;;;;;;;17.37;98.71;100751.09;677193;29;4349;-80
2021/08/22 00:40:31;;;;;;;13.48;12.10;;;;;;;17.38;98.70;100757.22;680209;29;1417;-80
2021/08/22 00:40:51;;;;;;;13.60;12.20;;;;;;;17.38;98.83;100754.59;681003;28;1366;-80
2021/08/22 00:41:11;;;;;;;13.10;11.80;;;;;;;17.36;98.99;100747.59;681217;28;4120;-80
2021/08/22 00:41:32;;;;;;;13.27;11.98;;;;;;;17.35;98.90;100756.44;680468;28;1856;-80
2021/08/22 00:41:52;;;;;;;13.67;11.83;;;;;;;17.35;98.92;100761.72;681894;28;1362;-80
2021/08/22 00:42:13;;;;;;;13.50;12.05;;;;;;;17.34;98.98;100752.06;683627;28;1471;-80
2021/08/22 00:42:34;;;;;;;13.27;11.87;;;;;;;17.35;98.97;100755.59;680337;29;1535;-80
2021/08/22 00:42:54;;;;;;;14.18;12.25;;;;;;;17.34;98.63;100756.50;681200;29;1112;-80
2021/08/22 00:43:15;;;;;;;14.05;12.60;;;;;;;17.34;98.90;100752.06;677516;29;4370;-80
2021/08/22 00:43:35;;;;;;;13.77;12.37;;;;;;;17.35;99.16;100753.78;674910;29;1490;-80
2021/08/22 00:43:55;;;;;;;13.48;11.95;;;;;;;17.35;98.90;100758.22;675259;29;3927;-80
2021/08/22 00:44:16;;;;;;;13.50;12.13;;;;;;;17.33;99.00;100754.75;675981;29;4239;-80
2021/08/22 00:44:36;;;;;;;12.97;11.57;;;;;;;17.33;99.27;100760.03;680773;29;1995;-80
2021/08/22 00:44:56;;;;;;;13.63;12.23;;;;;;;17.33;98.85;100758.28;680197;29;1824;-80
2021/08/22 00:45:17;;;;;;;13.50;12.03;;;;;;;17.32;98.73;100753.91;683037;28;1557;-81
2021/08/22 00:45:37;;;;;;;13.32;11.77;;;;;;;17.31;98.95;100746.88;684822;28;1654;-80
2021/08/22 00:45:58;;;;;;;13.63;12.23;;;;;;;17.31;99.00;100753.94;684520;28;1156;-80
2021/08/22 00:46:19;;;;;;;13.68;12.13;;;;;;;17.30;99.04;100757.50;681106;28;4372;-80
2021/08/22 00:46:39;;;;;;;13.53;11.77;;;;;;;17.28;99.12;100749.63;677414;29;1525;-80
2021/08/22 00:47:01;;;;;;;13.63;11.95;;;;;;;17.29;98.88;100754.00;679435;29;2191;-80
2021/08/22 00:47:21;;;;;;;13.27;11.88;;;;;;;17.29;98.99;100758.41;681379;28;1475;-80
2021/08/22 00:47:43;;;;;;;13.07;11.67;;;;;;;17.29;98.91;100753.13;680771;28;1558;-80
2021/08/22 00:48:04;;;;;;;12.90;11.60;;;;;;;17.28;99.10;100757.53;681449;28;1494;-80
2021/08/22 00:48:28;;;;;;;13.45;12.05;;;;;;;17.29;99.11;100759.28;680255;29;1375;-80
2021/08/22 00:48:49;;;;;;;12.77;11.48;;;;;;;17.29;99.07;100758.41;680739;29;1595;-80
2021/08/22 00:49:10;;;;;;;12.73;11.43;;;;;;;17.29;99.15;100753.13;680020;28;4423;-80
2021/08/22 00:49:31;;;;;;;12.52;11.32;;;;;;;17.28;98.79;100754.91;681065;29;1640;-80
2021/08/22 00:49:51;;;;;;;12.98;11.68;;;;;;;17.28;98.98;100751.38;681500;28;4057;-80
2021/08/22 00:50:16;;;;;;;13.27;11.77;;;;;;;17.28;98.91;100752.25;683751;28;4633;-80
2021/08/22 00:50:37;;;;;;;13.05;11.63;;;;;;;17.28;98.70;100751.38;685642;28;1372;-80
2021/08/22 00:50:58;;;;;;;12.93;11.63;;;;;;;17.28;98.64;100757.53;685515;28;1492;-80
2021/08/22 00:51:19;;;;;;;12.55;11.25;;;;;;;17.29;98.01;100756.66;683113;28;1011;-80
2021/08/22 00:51:42;;;;;;;12.60;10.97;;;;;;;17.30;98.28;100758.34;686798;28;1565;-80
2021/08/22 00:52:05;;;;;;;13.00;11.45;;;;;;;17.30;98.41;100753.06;680341;28;1735;-80
2021/08/22 00:52:26;;;;;;;12.18;10.88;;;;;;;17.30;97.97;100757.50;676873;29;4761;-80
2021/08/22 00:52:50;;;;;;;11.68;10.48;;;;;;;17.31;97.58;100754.81;679561;29;4074;-80
2021/08/22 00:53:11;;;;;;;10.52;9.52;;;;;;;17.34;97.38;100754.69;675446;29;4224;-80
2021/08/22 00:53:31;;;;;;;10.47;9.47;;;;;;;17.36;97.15;100760.81;680409;29;1871;-80
2021/08/22 00:53:54;;;;;;;11.52;10.35;;;;;;;17.36;97.48;100758.19;681682;28;1883;-80
2021/08/22 00:54:14;;;;;;;11.27;10.18;;;;;;;17.34;97.95;100752.06;683333;28;1116;-80
2021/08/22 00:54:35;;;;;;;11.67;10.50;;;;;;;17.33;97.96;100760.03;684197;28;1164;-80
2021/08/22 00:54:56;;;;;;;12.23;10.65;;;;;;;17.30;98.33;100761.00;682490;28;1376;-80
2021/08/22 00:55:17;;;;;;;11.70;10.50;;;;;;;17.30;98.47;100757.50;677795;28;4632;-80
2021/08/22 00:55:37;;;;;;;11.80;10.60;;;;;;;17.30;98.52;100761.00;680395;29;1525;-80
2021/08/22 00:56:03;;;;;;;12.10;10.90;;;;;;;17.29;98.54;100761.03;680747;28;5046;-80
2021/08/22 00:56:24;;;;;;;12.07;10.88;;;;;;;17.29;98.48;100755.75;677746;29;1452;-80
2021/08/22 00:56:44;;;;;;;11.80;10.60;;;;;;;17.29;98.22;100755.75;678575;29;1582;-80
2021/08/22 00:57:05;;;;;;;11.47;10.23;;;;;;;17.29;98.38;100754.00;681716;28;1462;-80
2021/08/22 00:57:25;;;;;;;11.82;10.63;;;;;;;17.29;97.94;100753.13;678540;29;1377;-80
2021/08/22 00:57:45;;;;;;;11.87;10.67;;;;;;;17.29;97.70;100763.69;678435;29;1661;-80
2021/08/22 00:58:06;;;;;;;11.82;10.63;;;;;;;17.29;97.84;100763.69;679475;29;1316;-80
2021/08/22 00:58:26;;;;;;;11.80;10.60;;;;;;;17.28;98.31;100761.94;683487;28;4375;-80
2021/08/22 00:58:46;;;;;;;11.60;10.50;;;;;;;17.26;98.24;100754.06;683739;28;4059;-80
2021/08/22 00:59:09;;;;;;;12.32;11.02;;;;;;;17.27;98.24;100758.44;680597;28;4005;-80
2021/08/22 00:59:29;;;;;;;11.75;10.52;;;;;;;17.25;97.72;100757.66;680651;29;1341;-80
2021/08/22 00:59:52;;;;;;;12.00;10.33;;;;;;;17.25;97.33;100752.38;680936;29;1568;-80
2021/08/22 01:00:14;;;;;;;11.65;10.32;;;;;;;17.26;97.34;100754.06;680756;28;1445;-80
2021/08/22 01:00:36;;;;;;;11.85;10.63;;;;;;;17.28;96.96;100749.63;683654;28;1458;-80
2021/08/22 01:00:59;;;;;;;11.80;10.52;;;;;;;17.28;96.73;100752.25;687423;28;1139;-80
2021/08/22 01:01:25;;;;;;;11.60;10.40;;;;;;;17.30;96.66;100765.41;680118;28;5375;-80
2021/08/22 01:01:48;;;;;;;10.32;9.32;;;;;;;17.31;96.71;100762.72;675359;29;3828;-80
2021/08/22 01:02:24;;;;;;;10.90;9.63;;;;;;;17.31;96.78;100759.22;674796;29;3264;-80
2021/08/22 01:03:15;;;;;;;11.85;10.13;;;;;;;17.27;97.67;100761.09;679937;28;1507;-80
2021/08/22 01:04:12;;;;;;;11.75;10.50;;;;;;;17.25;97.87;100760.28;686128;28;1523;-80
2021/08/22 01:04:50;;;;;;;11.48;10.38;;;;;;;17.21;98.04;100758.66;685251;28;6448;-80
2021/08/22 01:05:24;;;;;;;11.65;10.45;;;;;;;17.17;97.84;100759.66;685272;28;4375;-80
2021/08/22 01:06:12;;;;;;;11.55;10.23;;;;;;;17.14;98.07;100762.38;683196;28;1401;-80
2021/08/22 01:06:37;;;;;;;11.70;10.38;;;;;;;17.14;98.30;100759.72;684366;28;1180;-80
2021/08/22 01:06:58;;;;;;;11.57;10.10;;;;;;;17.13;98.05;100758.03;681462;28;1194;-80
2021/08/22 01:07:24;;;;;;;11.50;9.80;;;;;;;17.11;97.67;100759.84;681262;28;4443;-80
2021/08/22 01:07:49;;;;;;;11.55;9.65;;;;;;;17.12;97.20;100751.00;679900;29;3802;-80
2021/08/22 01:08:23;;;;;;;10.07;8.95;;;;;;;17.21;96.24;100758.66;680544;28;1502;-80
2021/08/22 01:08:53;;;;;;;9.65;8.40;;;;;;;17.25;95.83;100756.75;684018;28;1839;-80
2021/08/22 01:09:21;;;;;;;10.38;8.82;;;;;;;17.25;96.30;100757.66;681080;28;1390;-80
2021/08/22 01:09:46;;;;;;;11.23;9.15;;;;;;;17.21;96.75;100753.38;682730;28;1725;-80
2021/08/22 01:10:10;;;;;;;10.60;9.50;;;;;;;17.19;96.76;100757.81;681188;28;1501;-80
2021/08/22 01:10:32;;;;;;;10.73;9.57;;;;;;;17.20;96.20;100762.19;678200;29;4658;-80
2021/08/22 01:11:00;;;;;;;9.30;8.40;;;;;;;17.26;95.66;100759.34;680613;29;3769;-80
2021/08/22 01:11:24;;;;;;;9.00;7.97;;;;;;;17.33;94.81;100766.22;686018;28;1502;-80
2021/08/22 01:11:46;;;;;;;9.27;7.88;;;;;;;17.41;94.06;100759.81;683591;28;1217;-80
2021/08/22 01:12:11;;;;;;;8.80;7.90;;;;;;;17.49;93.29;100757.78;680535;28;1740;-80
2021/08/22 01:12:40;;;;;;;9.60;7.72;;;;;;;17.55;92.89;100760.22;683899;28;1747;-80
2021/08/22 01:13:08;;;;;;;9.68;7.68;;;;;;;17.62;92.54;100764.38;684201;28;1424;-80
2021/08/22 01:13:41;;;;;;;9.30;7.93;;;;;;;17.62;93.00;100764.38;681913;28;4996;-80
2021/08/22 01:14:05;;;;;;;9.40;8.40;;;;;;;17.60;94.04;100762.69;682159;28;4460;-80
2021/08/22 01:14:31;;;;;;;9.60;8.60;;;;;;;17.55;94.82;100760.22;682941;28;1922;-80
2021/08/22 01:14:56;;;;;;;9.77;8.77;;;;;;;17.50;95.09;100763.03;683605;28;1356;-80
2021/08/22 01:15:18;;;;;;;10.18;9.18;;;;;;;17.47;95.38;100759.59;682163;28;973;-80
2021/08/22 01:15:43;;;;;;;10.23;9.13;;;;;;;17.42;95.40;100770.31;683601;28;1806;-80
2021/08/22 01:16:07;;;;;;;10.38;9.20;;;;;;;17.44;94.56;100762.34;681466;28;1474;-80
2021/08/22 01:16:33;;;;;;;9.27;8.15;;;;;;;17.45;94.00;100766.72;680709;29;4386;-80
2021/08/22 01:16:56;;;;;;;9.30;8.40;;;;;;;17.43;94.59;100764.13;680166;28;4320;-80
2021/08/22 01:17:20;;;;;;;9.40;8.40;;;;;;;17.41;95.09;100767.72;680187;28;2442;-80
2021/08/22 01:17:47;;;;;;;10.23;8.95;;;;;;;17.36;95.39;100771.38;679999;28;1475;-80
2021/08/22 01:18:14;;;;;;;9.38;8.38;;;;;;;17.36;94.42;100767.84;680755;28;1589;-80
2021/08/22 01:18:37;;;;;;;8.63;7.72;;;;;;;17.38;93.99;100763.41;680188;29;1588;-80
2021/08/22 01:19:02;;;;;;;10.27;8.68;;;;;;;17.38;94.70;100773.09;681105;29;1679;-80
2021/08/22 01:19:52;;;;;;;10.32;8.82;;;;;;;17.32;95.70;100761.81;680328;28;4347;-80
2021/08/22 01:20:21;;;;;;;10.57;9.48;;;;;;;17.31;96.09;100772.44;685419;28;1662;-80
2021/08/22 01:21:00;;;;;;;10.27;9.20;;;;;;;17.24;96.21;100771.75;683474;28;1410;-80
2021/08/22 01:21:22;;;;;;;10.32;9.23;;;;;;;17.16;96.64;100773.78;684299;28;1226;-80
2021/08/22 01:21:44;;;;;;;10.38;9.20;;;;;;;17.11;96.75;100771.28;684016;28;1562;-80
2021/08/22 01:22:07;;;;;;;10.35;9.25;;;;;;;17.09;96.69;100774.88;682882;28;1525;-80
2021/08/22 01:22:29;;;;;;;10.40;9.30;;;;;;;17.06;96.47;100774.94;683177;28;4643;-80
2021/08/22 01:22:51;;;;;;;10.05;9.05;;;;;;;17.05;96.57;100773.25;684058;28;4418;-80
2021/08/22 01:23:12;;;;;;;10.10;9.10;;;;;;;17.05;96.01;100775.88;685824;28;1559;-80
2021/08/22 01:23:37;;;;;;;10.00;8.88;;;;;;;17.10;95.69;100771.31;689417;28;1754;-80
2021/08/22 01:24:02;;;;;;;9.10;8.20;;;;;;;17.19;94.78;100773.66;686033;28;1770;-80
2021/08/22 01:24:25;;;;;;;8.80;7.70;;;;;;;17.28;94.26;100778.69;684120;28;1072;-80
2021/08/22 01:24:47;;;;;;;9.38;7.50;;;;;;;17.35;93.55;100780.22;683970;28;1891;-80
2021/08/22 01:25:09;;;;;;;8.38;7.40;;;;;;;17.43;92.87;100776.47;684246;28;1468;-80
2021/08/22 01:25:33;;;;;;;8.40;7.53;;;;;;;17.51;92.42;100769.16;683533;28;4826;-80
2021/08/22 01:25:55;;;;;;;9.48;7.85;;;;;;;17.55;92.42;100770.78;684941;28;3380;-80
2021/08/22 01:26:19;;;;;;;9.25;8.35;;;;;;;17.48;93.94;100774.53;687588;28;1593;-80
2021/08/22 01:26:40;;;;;;;9.75;8.75;;;;;;;17.42;94.70;100774.72;687713;28;1305;-80
2021/08/22 01:27:01;;;;;;;10.45;9.20;;;;;;;17.38;94.82;100771.34;687372;28;955;-80
2021/08/22 01:27:22;;;;;;;9.57;8.52;;;;;;;17.32;95.30;100775.03;680807;29;1064;-80
2021/08/22 01:27:45;;;;;;;9.63;8.63;;;;;;;17.31;95.29;100773.28;680785;29;1535;-80
2021/08/22 01:28:06;;;;;;;9.95;8.73;;;;;;;17.27;95.57;100776.94;679230;29;1322;-80
2021/08/22 01:28:28;;;;;;;11.20;9.05;;;;;;;17.24;95.85;100765.59;680331;28;4543;-80
2021/08/22 01:28:50;;;;;;;10.45;9.35;;;;;;;17.21;95.81;100770.97;680590;28;4340;-80
2021/08/22 01:29:11;;;;;;;10.40;9.40;;;;;;;17.20;95.27;100767.47;682131;28;1825;-80
2021/08/22 01:29:41;;;;;;;10.30;9.20;;;;;;;17.16;95.71;100771.13;686359;28;1161;-80
2021/08/22 01:30:08;;;;;;;9.75;8.55;;;;;;;17.20;94.88;100775.41;687207;28;1299;-80
2021/08/22 01:30:29;;;;;;;8.93;7.95;;;;;;;17.20;94.70;100772.78;686157;28;1050;-80
2021/08/22 01:30:51;;;;;;;9.87;8.90;;;;;;;17.19;95.24;100768.38;683610;28;1723;-80
2021/08/22 01:31:18;;;;;;;9.65;8.57;;;;;;;17.17;95.12;100775.50;680544;28;4348;-80
2021/08/22 01:31:44;;;;;;;9.98;8.20;;;;;;;17.18;95.36;100774.56;682544;28;4822;-80
2021/08/22 01:32:07;;;;;;;10.05;8.52;;;;;;;17.16;95.06;100771.13;683297;28;1838;-80
2021/08/22 01:32:48;;;;;;;8.43;7.53;;;;;;;17.25;93.97;100772.63;683120;28;1333;-80
2021/08/22 01:33:12;;;;;;;8.55;7.65;;;;;;;17.34;93.24;100773.19;682517;28;1763;-80
2021/08/22 01:33:33;;;;;;;10.00;7.60;;;;;;;17.41;92.71;100778.31;683512;28;1791;-80
2021/08/22 01:33:55;;;;;;;8.55;7.50;;;;;;;17.44;92.71;100776.41;684808;28;1385;-80
2021/08/22 01:34:16;;;;;;;8.32;7.50;;;;;;;17.45;93.31;100780.78;684216;28;4468;-80
2021/08/22 01:34:37;;;;;;;9.40;8.40;;;;;;;17.40;93.89;100785.34;681068;28;4546;-80
2021/08/22 01:34:57;;;;;;;9.23;8.23;;;;;;;17.35;94.02;100777.56;679490;28;1699;-80
2021/08/22 01:35:21;;;;;;;9.07;8.17;;;;;;;17.28;95.03;100783.09;679332;28;1451;-80
2021/08/22 01:35:43;;;;;;;9.40;8.50;;;;;;;17.21;95.58;100779.78;680730;29;1605;-80
2021/08/22 01:36:04;;;;;;;9.35;8.35;;;;;;;17.18;95.03;100778.09;678747;28;2209;-80
2021/08/22 01:36:25;;;;;;;9.10;8.20;;;;;;;17.17;94.73;100775.50;680705;29;1686;-80
2021/08/22 01:36:46;;;;;;;9.77;8.70;;;;;;;17.18;94.97;100774.56;678032;29;1453;-80
2021/08/22 01:37:07;;;;;;;10.88;8.70;;;;;;;17.16;95.20;100784.34;677645;29;2026;-80
2021/08/22 01:37:27;;;;;;;9.65;8.43;;;;;;;17.11;95.82;100775.69;678202;29;4388;-80
2021/08/22 01:37:49;;;;;;;9.68;8.60;;;;;;;17.07;95.88;100781.97;680458;28;1644;-80
2021/08/22 01:38:11;;;;;;;9.27;8.38;;;;;;;17.10;95.29;100782.75;683246;28;2163;-80
2021/08/22 01:38:34;;;;;;;9.70;8.63;;;;;;;17.07;96.09;100789.88;683605;28;1880;-80
2021/08/22 01:38:55;;;;;;;10.07;9.02;;;;;;;17.05;96.17;100789.09;683574;28;1530;-80
2021/08/22 01:39:16;;;;;;;9.40;8.40;;;;;;;17.05;96.38;100781.16;685991;28;1445;-80
2021/08/22 01:39:38;;;;;;;10.02;9.02;;;;;;;17.03;95.84;100786.50;683843;28;3636;-80
2021/08/22 01:39:59;;;;;;;9.65;8.70;;;;;;;17.06;95.41;100777.59;678631;29;1254;-80
2021/08/22 01:40:21;;;;;;;9.75;8.77;;;;;;;17.07;95.67;100776.69;677291;29;4496;-80
2021/08/22 01:40:43;;;;;;;10.10;9.05;;;;;;;17.01;96.49;100780.38;678633;29;3513;-80
2021/08/22 01:41:05;;;;;;;10.77;9.20;;;;;;;16.99;96.99;100779.56;677911;29;1727;-80
2021/08/22 01:41:26;;;;;;;10.32;9.13;;;;;;;16.97;97.21;100774.31;682124;28;1739;-80
2021/08/22 01:41:48;;;;;;;9.98;8.82;;;;;;;16.99;96.16;100782.22;683371;28;1336;-80
2021/08/22 01:42:09;;;;;;;10.05;9.00;;;;;;;16.99;95.93;100783.06;683165;28;1477;-80
2021/08/22 01:42:31;;;;;;;10.07;9.07;;;;;;;16.97;96.83;100790.16;681316;29;1270;-80
2021/08/22 01:42:53;;;;;;;10.20;9.15;;;;;;;16.92;97.07;100784.16;680824;29;1277;-80
2021/08/22 01:43:14;;;;;;;10.70;9.43;;;;;;;16.90;97.42;100783.31;682289;28;4338;-80
2021/08/22 01:43:37;;;;;;;10.85;9.75;;;;;;;16.88;97.63;100784.25;686141;28;3665;-80
2021/08/22 01:43:59;;;;;;;11.60;9.88;;;;;;;16.88;97.71;100779.84;687122;28;1379;-80
2021/08/22 01:44:20;;;;;;;11.57;9.88;;;;;;;16.88;97.77;100779.84;682433;28;1453;-80
2021/08/22 01:44:43;;;;;;;11.10;9.52;;;;;;;16.87;97.79;100786.03;679858;29;1922;-80
2021/08/22 01:45:08;;;;;;;11.85;9.80;;;;;;;16.88;97.88;100778.97;680997;28;1466;-80
2021/08/22 01:45:29;;;;;;;11.05;9.80;;;;;;;16.86;98.00;100779.00;676242;29;1604;-80